Time;durP1;ratioP1;P1;durP2;ratioP2;P2;SDS_P1;SDS_P2;PMS_P1;PMS_P2;Temp;Humidity;BMP_temperature;BMP_pressure;BME280_temperature;BME280_humidity;BME280_pressure;Samples;Min_cycle;Max_cycle;Signal;HPM_P1;HPM_P2
2022/07/21 00:01:59;;;;;;;;;;;;;;;;;;5110223;28;20366;-79
2022/07/21 00:04:25;;;;;;;;;;;;;;;;;;5094226;28;20010;-77
2022/07/21 00:06:52;;;;;;;;;;;;;;;;;;5094205;28;19971;-78
2022/07/21 00:09:18;;;;;;;;;;;;;;;;;;5095661;28;19928;-78
2022/07/21 00:11:45;;;;;;;;;;;;;;;;;;5097227;28;20023;-78
2022/07/21 00:14:12;;;;;;;;;;;;;;;;;;5097042;28;20011;-78
2022/07/21 00:16:40;;;;;;;;;;;;;;;;;;5098070;28;20023;-79
2022/07/21 00:19:08;;;;;;;;;;;;;;;;;;5104826;28;19931;-79
2022/07/21 00:21:35;;;;;;;;;;;;;;;;;;5107542;28;19951;-76
2022/07/21 00:24:02;;;;;;;;;;;;;;;;;;5099422;28;19967;-77
2022/07/21 00:26:28;;;;;;;;;;;;;;;;;;5095315;28;19963;-78
2022/07/21 00:28:55;;;;;;;;;;;;;;;;;;5093702;28;19924;-76
2022/07/21 00:31:21;;;;;;;;;;;;;;;;;;5093651;28;19959;-77
2022/07/21 00:33:50;;;;;;;;;;;;;;;;;;5093651;28;20382;-78
2022/07/21 00:36:18;;;;;;;;;;;;;;;;;;5092304;28;19963;-76
2022/07/21 00:38:45;;;;;;;;;;;;;;;;;;5092506;28;20383;-77
2022/07/21 00:41:11;;;;;;;;;;;;;;;;;;5092317;28;19924;-75
2022/07/21 00:43:38;;;;;;;;;;;;;;;;;;5092160;28;19924;-76
2022/07/21 00:46:04;;;;;;;;;;;;;;;;;;5091950;28;20348;-76
2022/07/21 00:48:31;;;;;;;;;;;;;;;;;;5093081;28;19971;-77
2022/07/21 00:50:58;;;;;;;;;;;;;;;;;;5092928;28;20013;-77
2022/07/21 00:53:26;;;;;;;;;;;;;;;;;;5097070;28;19968;-77
2022/07/21 00:55:53;;;;;;;;;;;;;;;;;;5096715;28;19974;-78
2022/07/21 00:58:20;;;;;;;;;;;;;;;;;;5093704;28;20011;-77
2022/07/21 01:00:46;;;;;;;;;;;;;;;;;;5092080;28;20402;-77
2022/07/21 01:03:13;;;;;;;;;;;;;;;;;;5092440;28;19924;-77
2022/07/21 01:05:39;;;;;;;;;;;;;;;;;;5092507;28;19967;-76
2022/07/21 01:08:06;;;;;;;;;;;;;;;;;;5091996;28;19924;-78
2022/07/21 01:10:34;;;;;;;;;;;;;;;;;;5091920;28;20034;-78
2022/07/21 01:13:01;;;;;;;;;;;;;;;;;;5091940;28;19945;-79
2022/07/21 01:15:28;;;;;;;;;;;;;;;;;;5092255;28;19975;-77
2022/07/21 01:17:55;;;;;;;;;;;;;;;;;;5091903;28;19981;-77
2022/07/21 01:20:22;;;;;;;;;;;;;;;;;;5092227;28;19971;-78
2022/07/21 01:22:51;;;;;;;;;;;;;;;;;;5092370;28;20029;-78
2022/07/21 01:25:18;;;;;;;;;;;;;;;;;;5092302;28;19975;-77
2022/07/21 01:27:44;;;;;;;;;;;;;;;;;;5092187;28;20015;-78
2022/07/21 01:30:11;;;;;;;;;;;;;;;;;;5091749;28;20417;-77
2022/07/21 01:32:39;;;;;;;;;;;;;;;;;;5095139;28;19924;-77
2022/07/21 01:35:06;;;;;;;;;;;;;;;;;;5095694;28;19924;-78
2022/07/21 01:37:37;;;;;;;;;;;;;;;;;;5132908;22;19965;-80
2022/07/21 01:42:49;;;;;;;;;;;;;;;;;;5136192;27;19931;-77
2022/07/21 01:45:16;;;;;;;;;;;;;;;;;;5136156;27;19930;-77
2022/07/21 01:47:42;;;;;;;;;;;;;;;;;;5135757;27;20014;-78
2022/07/21 01:50:09;;;;;;;;;;;;;;;;;;5136362;27;19930;-78
2022/07/21 01:52:35;;;;;;;;;;;;;;;;;;5136355;27;20010;-78
2022/07/21 01:55:01;;;;;;;;;;;;;;;;;;5136022;27;19963;-78
2022/07/21 01:57:29;;;;;;;;;;;;;;;;;;5135849;27;20022;-78
2022/07/21 01:59:56;;;;;;;;;;;;;;;;;;5131094;27;20011;-78
2022/07/21 02:02:22;;;;;;;;;;;;;;;;;;5115407;28;19930;-78
2022/07/21 02:04:49;;;;;;;;;;;;;;;;;;5115815;28;19924;-78
2022/07/21 02:07:16;;;;;;;;;;;;;;;;;;5114822;28;20014;-78
2022/07/21 02:09:42;;;;;;;;;;;;;;;;;;5115490;28;19932;-78
2022/07/21 02:12:09;;;;;;;;;;;;;;;;;;5115304;28;19924;-78
2022/07/21 02:14:36;;;;;;;;;;;;;;;;;;5115233;28;19963;-78
2022/07/21 02:17:03;;;;;;;;;;;;;;;;;;5114875;28;19985;-79
2022/07/21 02:19:30;;;;;;;;;;;;;;;;;;5114888;28;19924;-77
2022/07/21 02:21:56;;;;;;;;;;;;;;;;;;5115114;28;20065;-78
2022/07/21 02:24:22;;;;;;;;;;;;;;;;;;5115390;28;20006;-77
2022/07/21 02:26:49;;;;;;;;;;;;;;;;;;5115035;28;20006;-76
2022/07/21 02:29:15;;;;;;;;;;;;;;;;;;5118470;28;20357;-78
2022/07/21 02:31:43;;;;;;;;;;;;;;;;;;5120155;28;19971;-78
2022/07/21 02:34:10;;;;;;;;;;;;;;;;;;5119209;28;19967;-79
2022/07/21 02:36:36;;;;;;;;;;;;;;;;;;5119423;28;19982;-78
2022/07/21 02:39:03;;;;;;;;;;;;;;;;;;5120010;28;20442;-78
2022/07/21 02:41:29;;;;;;;;;;;;;;;;;;5119475;28;19967;-78
2022/07/21 02:43:56;;;;;;;;;;;;;;;;;;5123536;28;19991;-78
2022/07/21 02:46:22;;;;;;;;;;;;;;;;;;5123307;28;20014;-79
2022/07/21 02:48:50;;;;;;;;;;;;;;;;;;5121534;28;20014;-78
2022/07/21 02:51:16;;;;;;;;;;;;;;;;;;5119859;28;19932;-78
2022/07/21 02:53:43;;;;;;;;;;;;;;;;;;5119827;28;19966;-78
2022/07/21 02:56:09;;;;;;;;;;;;;;;;;;5119709;28;20010;-79
2022/07/21 02:58:36;;;;;;;;;;;;;;;;;;5119436;28;20015;-79
2022/07/21 03:01:03;;;;;;;;;;;;;;;;;;5133948;27;19927;-79
2022/07/21 03:03:31;;;;;;;;;;;;;;;;;;5139594;27;19960;-79
2022/07/21 03:05:59;;;;;;;;;;;;;;;;;;5139374;27;19923;-78
2022/07/21 03:08:26;;;;;;;;;;;;;;;;;;5139460;27;19946;-78
2022/07/21 03:10:52;;;;;;;;;;;;;;;;;;5139287;27;19949;-79
2022/07/21 03:13:19;;;;;;;;;;;;;;;;;;5139607;27;19967;-79
2022/07/21 03:15:45;;;;;;;;;;;;;;;;;;5139207;27;19931;-79
2022/07/21 03:18:12;;;;;;;;;;;;;;;;;;5139395;27;19923;-79
2022/07/21 03:20:39;;;;;;;;;;;;;;;;;;5139860;27;19963;-78
2022/07/21 03:23:07;;;;;;;;;;;;;;;;;;5139558;27;20014;-79
2022/07/21 03:25:34;;;;;;;;;;;;;;;;;;5139501;27;19992;-79
2022/07/21 03:28:00;;;;;;;;;;;;;;;;;;5143317;27;19924;-78
2022/07/21 03:30:28;;;;;;;;;;;;;;;;;;5157835;27;19922;-77
2022/07/21 03:32:55;;;;;;;;;;;;;;;;;;5158879;27;19951;-78
2022/07/21 03:35:21;;;;;;;;;;;;;;;;;;5159206;27;19907;-78
2022/07/21 03:37:49;;;;;;;;;;;;;;;;;;5139109;27;20370;-78
2022/07/21 03:40:19;;;;;;;;;;;;;;;;;;5139006;27;19924;-78
2022/07/21 03:42:46;;;;;;;;;;;;;;;;;;5138518;27;19927;-78
2022/07/21 03:45:12;;;;;;;;;;;;;;;;;;5139644;27;19978;-79
2022/07/21 03:47:39;;;;;;;;;;;;;;;;;;5138960;27;20456;-79
2022/07/21 03:50:06;;;;;;;;;;;;;;;;;;5139388;27;20010;-79
2022/07/21 03:52:33;;;;;;;;;;;;;;;;;;5139458;27;20029;-78
2022/07/21 03:55:08;;;;;;;;;;;;;;;;;;5139772;27;20022;-79
2022/07/21 03:57:37;;;;;;;;;;;;;;;;;;5138882;27;20062;-79
2022/07/21 04:00:05;;;;;;;;;;;;;;;;;;5132898;27;20018;-78
2022/07/21 04:02:31;;;;;;;;;;;;;;;;;;5118659;28;19932;-78
2022/07/21 04:04:58;;;;;;;;;;;;;;;;;;5118121;28;20453;-78
2022/07/21 04:07:24;;;;;;;;;;;;;;;;;;5116874;28;19924;-78
2022/07/21 04:09:51;;;;;;;;;;;;;;;;;;5117916;28;19958;-78
2022/07/21 04:12:17;;;;;;;;;;;;;;;;;;5117925;28;20041;-78
2022/07/21 04:14:45;;;;;;;;;;;;;;;;;;5117064;28;19923;-77
2022/07/21 04:17:11;;;;;;;;;;;;;;;;;;5115582;28;19928;-77
2022/07/21 04:19:38;;;;;;;;;;;;;;;;;;5115609;28;19924;-78
2022/07/21 04:22:04;;;;;;;;;;;;;;;;;;5122495;28;19924;-78
2022/07/21 04:24:31;;;;;;;;;;;;;;;;;;5124681;28;19970;-77
2022/07/21 04:26:57;;;;;;;;;;;;;;;;;;5126176;28;20002;-77
2022/07/21 04:29:24;;;;;;;;;;;;;;;;;;5125625;28;19924;-78
2022/07/21 04:31:51;;;;;;;;;;;;;;;;;;5124432;28;19970;-76
2022/07/21 04:34:18;;;;;;;;;;;;;;;;;;5122418;28;20429;-75
2022/07/21 04:36:44;;;;;;;;;;;;;;;;;;5122594;28;19955;-76
2022/07/21 04:39:11;;;;;;;;;;;;;;;;;;5123976;28;19924;-76
2022/07/21 04:41:37;;;;;;;;;;;;;;;;;;5118277;28;19967;-76
2022/07/21 04:44:04;;;;;;;;;;;;;;;;;;5118040;28;20353;-77
2022/07/21 04:46:30;;;;;;;;;;;;;;;;;;5116864;28;20354;-78
2022/07/21 04:48:58;;;;;;;;;;;;;;;;;;5116494;28;19963;-77
2022/07/21 04:51:25;;;;;;;;;;;;;;;;;;5117617;28;19982;-78
2022/07/21 04:53:51;;;;;;;;;;;;;;;;;;5118653;28;19974;-78
2022/07/21 04:56:17;;;;;;;;;;;;;;;;;;5116727;28;19950;-82
2022/07/21 04:58:44;;;;;;;;;;;;;;;;;;5117850;28;19959;-78
2022/07/21 05:01:10;;;;;;;;;;;;;;;;;;5132472;28;19978;-78
2022/07/21 05:03:37;;;;;;;;;;;;;;;;;;5137450;28;19970;-78
2022/07/21 05:06:05;;;;;;;;;;;;;;;;;;5137291;27;19965;-78
2022/07/21 05:08:31;;;;;;;;;;;;;;;;;;5140125;27;19978;-77
2022/07/21 05:10:58;;;;;;;;;;;;;;;;;;5139312;27;19974;-77
2022/07/21 05:13:24;;;;;;;;;;;;;;;;;;5137449;27;19971;-77
2022/07/21 05:15:51;;;;;;;;;;;;;;;;;;5137620;27;20422;-77
2022/07/21 05:18:17;;;;;;;;;;;;;;;;;;5139141;27;19923;-75
2022/07/21 05:20:44;;;;;;;;;;;;;;;;;;5139383;27;19981;-76
2022/07/21 05:23:11;;;;;;;;;;;;;;;;;;5117483;27;20019;-77
2022/07/21 05:25:38;;;;;;;;;;;;;;;;;;5117861;28;20011;-77
2022/07/21 05:28:06;;;;;;;;;;;;;;;;;;5117271;28;20011;-77
2022/07/21 05:30:32;;;;;;;;;;;;;;;;;;5118007;28;19927;-77
2022/07/21 05:32:59;;;;;;;;;;;;;;;;;;5116259;28;19970;-77
2022/07/21 05:35:25;;;;;;;;;;;;;;;;;;5117323;28;19970;-77
2022/07/21 05:37:52;;;;;;;;;;;;;;;;;;5115787;28;20022;-77
2022/07/21 05:40:19;;;;;;;;;;;;;;;;;;5115865;28;20023;-76
2022/07/21 05:42:46;;;;;;;;;;;;;;;;;;5115974;28;20393;-76
2022/07/21 05:45:13;;;;;;;;;;;;;;;;;;5115791;28;20019;-76
2022/07/21 05:47:39;;;;;;;;;;;;;;;;;;5117500;28;20011;-77
2022/07/21 05:50:07;;;;;;;;;;;;;;;;;;5126955;28;19978;-77
2022/07/21 05:52:33;;;;;;;;;;;;;;;;;;5125435;28;19970;-77
2022/07/21 05:55:00;;;;;;;;;;;;;;;;;;5124720;28;19924;-76
2022/07/21 05:57:28;;;;;;;;;;;;;;;;;;5123250;28;19924;-77
2022/07/21 05:59:54;;;;;;;;;;;;;;;;;;5124138;28;19981;-77
2022/07/21 06:02:20;;;;;;;;;;;;;;;;;;5128153;28;20440;-77
2022/07/21 06:04:47;;;;;;;;;;;;;;;;;;5122150;28;20409;-75
2022/07/21 06:07:13;;;;;;;;;;;;;;;;;;5123392;28;19978;-76
2022/07/21 06:09:40;;;;;;;;;;;;;;;;;;5126218;28;20469;-75
2022/07/21 06:12:06;;;;;;;;;;;;;;;;;;5128147;28;19931;-76
2022/07/21 06:14:34;;;;;;;;;;;;;;;;;;5127415;28;19924;-76
2022/07/21 06:17:01;;;;;;;;;;;;;;;;;;5123190;28;19971;-77
2022/07/21 06:19:27;;;;;;;;;;;;;;;;;;5121864;28;19985;-76
2022/07/21 06:21:54;;;;;;;;;;;;;;;;;;5120375;28;20052;-76
2022/07/21 06:24:22;;;;;;;;;;;;;;;;;;5120823;28;19970;-75
2022/07/21 06:26:48;;;;;;;;;;;;;;;;;;5121308;28;19934;-77
2022/07/21 06:29:15;;;;;;;;;;;;;;;;;;5122153;28;19970;-77
2022/07/21 06:31:42;;;;;;;;;;;;;;;;;;5121256;28;19969;-76
2022/07/21 06:34:09;;;;;;;;;;;;;;;;;;5125717;28;19962;-77
2022/07/21 06:36:36;;;;;;;;;;;;;;;;;;5128487;28;19935;-75
2022/07/21 06:39:02;;;;;;;;;;;;;;;;;;5122310;28;19924;-78
2022/07/21 06:41:29;;;;;;;;;;;;;;;;;;5126511;28;19936;-79
2022/07/21 06:43:55;;;;;;;;;;;;;;;;;;5118407;28;19927;-78
2022/07/21 06:46:21;;;;;;;;;;;;;;;;;;5118509;28;19959;-77
2022/07/21 06:48:49;;;;;;;;;;;;;;;;;;5126043;28;19924;-76
2022/07/21 06:51:16;;;;;;;;;;;;;;;;;;5117260;28;19923;-78
2022/07/21 06:53:43;;;;;;;;;;;;;;;;;;5115648;28;19984;-76
2022/07/21 06:56:10;;;;;;;;;;;;;;;;;;5117297;28;19924;-76
2022/07/21 06:58:36;;;;;;;;;;;;;;;;;;5114347;28;19924;-75
2022/07/21 07:01:03;;;;;;;;;;;;;;;;;;5128671;27;19959;-77
2022/07/21 07:03:29;;;;;;;;;;;;;;;;;;5134928;27;20006;-78
2022/07/21 07:05:57;;;;;;;;;;;;;;;;;;5137215;27;19927;-78
2022/07/21 07:08:23;;;;;;;;;;;;;;;;;;5137056;27;20002;-80
2022/07/21 07:10:50;;;;;;;;;;;;;;;;;;5131061;27;20383;-78
2022/07/21 07:13:17;;;;;;;;;;;;;;;;;;5129201;27;19987;-78
2022/07/21 07:15:44;;;;;;;;;;;;;;;;;;5122100;28;19976;-77
2022/07/21 07:18:10;;;;;;;;;;;;;;;;;;5120262;27;20595;-77
2022/07/21 07:20:37;;;;;;;;;;;;;;;;;;5120997;28;20564;-77
2022/07/21 07:23:05;;;;;;;;;;;;;;;;;;5121795;28;20053;-76
2022/07/21 07:25:32;;;;;;;;;;;;;;;;;;5122220;28;19931;-77
2022/07/21 07:27:59;;;;;;;;;;;;;;;;;;5115554;28;20006;-76
2022/07/21 07:30:25;;;;;;;;;;;;;;;;;;5111650;28;20148;-78
2022/07/21 07:32:52;;;;;;;;;;;;;;;;;;5112146;28;19931;-77
2022/07/21 07:35:18;;;;;;;;;;;;;;;;;;5112215;28;20015;-77
2022/07/21 07:37:45;;;;;;;;;;;;;;;;;;5120502;28;19954;-78
2022/07/21 07:40:16;;;;;;;;;;;;;;;;;;5126784;22;20060;-77
2022/07/21 07:42:42;;;;;;;;;;;;;;;;;;5093827;28;20011;-78
2022/07/21 07:45:10;;;;;;;;;;;;;;;;;;5092643;28;19924;-78
2022/07/21 07:47:36;;;;;;;;;;;;;;;;;;5092677;28;19924;-77
2022/07/21 07:50:03;;;;;;;;;;;;;;;;;;5092270;28;19924;-78
2022/07/21 07:52:30;;;;;;;;;;;;;;;;;;5092662;28;19963;-78
2022/07/21 07:54:56;;;;;;;;;;;;;;;;;;5092561;28;19970;-76
2022/07/21 07:57:24;;;;;;;;;;;;;;;;;;5092854;28;20000;-78
2022/07/21 07:59:50;;;;;;;;;;;;;;;;;;5092054;28;20015;-78
2022/07/21 08:02:17;;;;;;;;;;;;;;;;;;5093511;28;19966;-78
2022/07/21 08:04:43;;;;;;;;;;;;;;;;;;5090737;28;20019;-77
2022/07/21 08:07:10;;;;;;;;;;;;;;;;;;5097122;28;20372;-78
2022/07/21 08:09:36;;;;;;;;;;;;;;;;;;5109428;28;19947;-76
2022/07/21 08:12:03;;;;;;;;;;;;;;;;;;5081177;28;19974;-78
2022/07/21 08:14:31;;;;;;;;;;;;;;;;;;5094035;28;19990;-76
2022/07/21 08:16:58;;;;;;;;;;;;;;;;;;5098566;28;19928;-77
2022/07/21 08:19:25;;;;;;;;;;;;;;;;;;5094152;28;19924;-77
2022/07/21 08:21:51;;;;;;;;;;;;;;;;;;5098810;28;19993;-77
2022/07/21 08:24:17;;;;;;;;;;;;;;;;;;5094809;28;19974;-77
2022/07/21 08:26:45;;;;;;;;;;;;;;;;;;5096162;28;19976;-78
2022/07/21 08:29:11;;;;;;;;;;;;;;;;;;5075283;28;19932;-77
2022/07/21 08:31:39;;;;;;;;;;;;;;;;;;5077600;28;19978;-78
2022/07/21 08:34:06;;;;;;;;;;;;;;;;;;5075866;28;19970;-77
2022/07/21 08:36:32;;;;;;;;;;;;;;;;;;5077693;28;19981;-77
2022/07/21 08:38:59;;;;;;;;;;;;;;;;;;5077458;28;19962;-78
2022/07/21 08:41:25;;;;;;;;;;;;;;;;;;5088007;28;19979;-77
2022/07/21 08:43:52;;;;;;;;;;;;;;;;;;5094375;28;20057;-79
2022/07/21 08:46:22;;;;;;;;;;;;;;;;;;5092515;28;19924;-77
2022/07/21 08:48:50;;;;;;;;;;;;;;;;;;5090905;28;20367;-78
2022/07/21 08:51:17;;;;;;;;;;;;;;;;;;5090751;28;19963;-78
2022/07/21 08:53:44;;;;;;;;;;;;;;;;;;5094633;28;19924;-78
2022/07/21 08:56:11;;;;;;;;;;;;;;;;;;5093244;28;20359;-77
2022/07/21 08:58:37;;;;;;;;;;;;;;;;;;5093714;28;20381;-77
2022/07/21 09:01:04;;;;;;;;;;;;;;;;;;5083701;28;19924;-77
2022/07/21 09:03:32;;;;;;;;;;;;;;;;;;5090072;28;19971;-78
2022/07/21 09:06:08;;;;;;;;;;;;;;;;;;5090587;28;19962;-77
2022/07/21 09:08:36;;;;;;;;;;;;;;;;;;5090934;28;20023;-77
2022/07/21 09:11:10;;;;;;;;;;;;;;;;;;5093234;28;20357;-76
2022/07/21 09:13:36;;;;;;;;;;;;;;;;;;5097658;28;19980;-78
2022/07/21 09:16:03;;;;;;;;;;;;;;;;;;5091458;28;20007;-77
2022/07/21 09:18:29;;;;;;;;;;;;;;;;;;5090254;28;20413;-76
2022/07/21 09:20:58;;;;;;;;;;;;;;;;;;5090455;28;19935;-77
2022/07/21 09:23:26;;;;;;;;;;;;;;;;;;5090372;28;19924;-77
2022/07/21 09:25:53;;;;;;;;;;;;;;;;;;5090001;28;19975;-78
2022/07/21 09:28:20;;;;;;;;;;;;;;;;;;5090296;28;20401;-77
2022/07/21 09:30:55;;;;;;;;;;;;;;;;;;5091052;28;20010;-77
2022/07/21 09:33:25;;;;;;;;;;;;;;;;;;5090232;28;20029;-77
2022/07/21 09:36:05;;;;;;;;;;;;;;;;;;5089940;28;20342;-77
2022/07/21 09:38:34;;;;;;;;;;;;;;;;;;5090018;28;19967;-77
2022/07/21 09:41:07;;;;;;;;;;;;;;;;;;5089497;28;20378;-77
2022/07/21 09:43:36;;;;;;;;;;;;;;;;;;5089599;28;19963;-76
2022/07/21 09:46:04;;;;;;;;;;;;;;;;;;5089327;28;20305;-76
2022/07/21 09:48:35;;;;;;;;;;;;;;;;;;5090186;28;20015;-77
2022/07/21 09:51:16;;;;;;;;;;;;;;;;;;5090164;28;19967;-77
2022/07/21 09:53:50;;;;;;;;;;;;;;;;;;5091659;28;19963;-77
2022/07/21 09:56:17;;;;;;;;;;;;;;;;;;5093171;28;20430;-77
2022/07/21 09:58:43;;;;;;;;;;;;;;;;;;5093492;28;19924;-76
2022/07/21 10:01:10;;;;;;;;;;;;;;;;;;5093620;28;19924;-77
2022/07/21 10:03:37;;;;;;;;;;;;;;;;;;5092802;28;20015;-77
2022/07/21 10:06:04;;;;;;;;;;;;;;;;;;5093014;28;19985;-76
2022/07/21 10:08:33;;;;;;;;;;;;;;;;;;5093745;28;19932;-76
2022/07/21 10:11:01;;;;;;;;;;;;;;;;;;5093050;28;20387;-77
2022/07/21 10:13:27;;;;;;;;;;;;;;;;;;5093112;28;20085;-77
2022/07/21 10:15:54;;;;;;;;;;;;;;;;;;5093018;28;19985;-77
2022/07/21 10:18:33;;;;;;;;;;;;;;;;;;5092865;28;19924;-75
2022/07/21 10:21:02;;;;;;;;;;;;;;;;;;5094982;28;19928;-78
2022/07/21 10:23:35;;;;;;;;;;;;;;;;;;5096029;28;19955;-76
2022/07/21 10:26:05;;;;;;;;;;;;;;;;;;5093257;28;19930;-76
2022/07/21 10:28:32;;;;;;;;;;;;;;;;;;5092985;28;19951;-77
2022/07/21 10:30:59;;;;;;;;;;;;;;;;;;5093020;28;20356;-76
2022/07/21 10:33:40;;;;;;;;;;;;;;;;;;5092232;28;19928;-76
2022/07/21 10:36:07;;;;;;;;;;;;;;;;;;5086472;28;20028;-76
2022/07/21 10:38:35;;;;;;;;;;;;;;;;;;5092868;28;20401;-77
2022/07/21 10:41:03;;;;;;;;;;;;;;;;;;5092673;28;19950;-77
2022/07/21 10:43:38;;;;;;;;;;;;;;;;;;5092284;28;19960;-77
2022/07/21 10:46:24;;;;;;;;;;;;;;;;;;5092345;28;19930;-77
2022/07/21 10:48:51;;;;;;;;;;;;;;;;;;5092242;28;19930;-76
2022/07/21 10:51:17;;;;;;;;;;;;;;;;;;5092190;28;20014;-77
2022/07/21 10:53:46;;;;;;;;;;;;;;;;;;5092701;28;19931;-76
2022/07/21 10:56:28;;;;;;;;;;;;;;;;;;5091235;28;19931;-77
2022/07/21 10:58:54;;;;;;;;;;;;;;;;;;5092913;28;19924;-76
2022/07/21 11:01:24;;;;;;;;;;;;;;;;;;5093364;28;19981;-76
2022/07/21 11:04:07;;;;;;;;;;;;;;;;;;5092707;28;19931;-76
2022/07/21 11:06:33;;;;;;;;;;;;;;;;;;5100979;28;19924;-76
2022/07/21 11:09:07;;;;;;;;;;;;;;;;;;5107048;28;19952;-76
2022/07/21 11:11:36;;;;;;;;;;;;;;;;;;5107919;28;19924;-77
2022/07/21 11:14:07;;;;;;;;;;;;;;;;;;5093719;28;19971;-77
2022/07/21 11:16:59;;;;;;;;;;;;;;;;;;5092128;28;19947;-77
2022/07/21 11:19:29;;;;;;;;;;;;;;;;;;5072941;28;19973;-75
2022/07/21 11:22:00;;;;;;;;;;;;;;;;;;5093585;28;19971;-75
2022/07/21 11:24:29;;;;;;;;;;;;;;;;;;5092711;28;21329;-76
2022/07/21 11:26:57;;;;;;;;;;;;;;;;;;5093968;28;20015;-75
2022/07/21 11:29:24;;;;;;;;;;;;;;;;;;5094088;28;19964;-76
2022/07/21 11:31:51;;;;;;;;;;;;;;;;;;5095542;28;20000;-76
2022/07/21 11:34:17;;;;;;;;;;;;;;;;;;5093457;28;20386;-76
2022/07/21 11:36:44;;;;;;;;;;;;;;;;;;5092454;28;19963;-78
2022/07/21 11:39:11;;;;;;;;;;;;;;;;;;5092679;28;19963;-76
2022/07/21 11:41:39;;;;;;;;;;;;;;;;;;5091293;28;19928;-75
2022/07/21 11:44:08;;;;;;;;;;;;;;;;;;5091250;28;20405;-77
2022/07/21 11:46:48;;;;;;;;;;;;;;;;;;5091147;28;19977;-76
2022/07/21 11:49:14;;;;;;;;;;;;;;;;;;5091460;28;19931;-76
2022/07/21 11:51:46;;;;;;;;;;;;;;;;;;5092541;28;19924;-79
2022/07/21 11:54:19;;;;;;;;;;;;;;;;;;5091906;28;20398;-78
2022/07/21 11:56:48;;;;;;;;;;;;;;;;;;5091125;28;19979;-76
2022/07/21 11:59:16;;;;;;;;;;;;;;;;;;5091805;28;19928;-76
2022/07/21 12:01:49;;;;;;;;;;;;;;;;;;5091102;28;20015;-76
2022/07/21 12:04:15;;;;;;;;;;;;;;;;;;5091060;28;19959;-76
2022/07/21 12:06:41;;;;;;;;;;;;;;;;;;5090370;28;19979;-77
2022/07/21 12:09:08;;;;;;;;;;;;;;;;;;5090851;28;19928;-76
2022/07/21 12:11:36;;;;;;;;;;;;;;;;;;5090440;28;19946;-76
2022/07/21 12:14:02;;;;;;;;;;;;;;;;;;5090634;28;20025;-76
2022/07/21 12:16:30;;;;;;;;;;;;;;;;;;5089550;28;19924;-76
2022/07/21 12:19:09;;;;;;;;;;;;;;;;;;5090415;28;20370;-76
2022/07/21 12:21:44;;;;;;;;;;;;;;;;;;5089974;28;20047;-76
2022/07/21 12:24:11;;;;;;;;;;;;;;;;;;5090694;28;19924;-76
2022/07/21 12:26:37;;;;;;;;;;;;;;;;;;5090032;28;20014;-76
2022/07/21 12:29:04;;;;;;;;;;;;;;;;;;5090080;28;20430;-79
2022/07/21 12:31:32;;;;;;;;;;;;;;;;;;5090065;28;19978;-76
2022/07/21 12:34:10;;;;;;;;;;;;;;;;;;5089689;28;19968;-77
2022/07/21 12:36:37;;;;;;;;;;;;;;;;;;5089643;28;19924;-77
2022/07/21 12:39:14;;;;;;;;;;;;;;;;;;5089845;28;20035;-75
2022/07/21 12:41:44;;;;;;;;;;;;;;;;;;5089507;28;20011;-77
2022/07/21 12:44:11;;;;;;;;;;;;;;;;;;5090227;28;19959;-77
2022/07/21 12:46:41;;;;;;;;;;;;;;;;;;5089243;28;20032;-77
2022/07/21 12:49:08;;;;;;;;;;;;;;;;;;5074697;28;19925;-76
2022/07/21 12:51:35;;;;;;;;;;;;;;;;;;5069627;28;19929;-77
2022/07/21 12:54:02;;;;;;;;;;;;;;;;;;5069537;28;20454;-76
2022/07/21 12:56:29;;;;;;;;;;;;;;;;;;5069526;28;19971;-76
2022/07/21 12:58:56;;;;;;;;;;;;;;;;;;5069842;28;20031;-76
2022/07/21 13:01:24;;;;;;;;;;;;;;;;;;5080521;28;20569;-77
2022/07/21 13:03:52;;;;;;;;;;;;;;;;;;5070125;28;20352;-77
2022/07/21 13:06:18;;;;;;;;;;;;;;;;;;5088449;28;19924;-77
2022/07/21 13:08:46;;;;;;;;;;;;;;;;;;5089831;28;20022;-75
2022/07/21 13:11:13;;;;;;;;;;;;;;;;;;5089691;28;19924;-76
2022/07/21 13:13:40;;;;;;;;;;;;;;;;;;5089879;28;19924;-77
2022/07/21 13:16:07;;;;;;;;;;;;;;;;;;5090023;28;19924;-77
2022/07/21 13:18:34;;;;;;;;;;;;;;;;;;5090646;28;20077;-77
2022/07/21 13:21:02;;;;;;;;;;;;;;;;;;5089971;28;19924;-77
2022/07/21 13:23:29;;;;;;;;;;;;;;;;;;5073215;28;19956;-77
2022/07/21 13:25:55;;;;;;;;;;;;;;;;;;5089635;28;20349;-77
2022/07/21 13:28:22;;;;;;;;;;;;;;;;;;5095917;28;19992;-76
2022/07/21 13:30:48;;;;;;;;;;;;;;;;;;5100146;28;19977;-77
2022/07/21 13:33:15;;;;;;;;;;;;;;;;;;5095034;28;19962;-78
2022/07/21 13:35:41;;;;;;;;;;;;;;;;;;5094073;28;20015;-76
2022/07/21 13:38:09;;;;;;;;;;;;;;;;;;5093407;28;20567;-76
2022/07/21 13:40:36;;;;;;;;;;;;;;;;;;5143182;22;19931;-77
2022/07/21 13:43:03;;;;;;;;;;;;;;;;;;5112926;28;19963;-79
2022/07/21 13:45:30;;;;;;;;;;;;;;;;;;5113687;28;19978;-78
2022/07/21 13:47:56;;;;;;;;;;;;;;;;;;5114485;28;20345;-79
2022/07/21 13:50:23;;;;;;;;;;;;;;;;;;5113762;28;19966;-81
2022/07/21 13:52:49;;;;;;;;;;;;;;;;;;5116603;28;19967;-81
2022/07/21 13:55:17;;;;;;;;;;;;;;;;;;5120234;28;20109;-79
2022/07/21 13:57:44;;;;;;;;;;;;;;;;;;5119585;28;19931;-79
2022/07/21 14:00:11;;;;;;;;;;;;;;;;;;5111744;28;19955;-78
2022/07/21 14:02:38;;;;;;;;;;;;;;;;;;5096750;28;19935;-78
2022/07/21 14:05:05;;;;;;;;;;;;;;;;;;5095714;28;19924;-79
2022/07/21 14:07:32;;;;;;;;;;;;;;;;;;5098481;28;20393;-78
2022/07/21 14:09:58;;;;;;;;;;;;;;;;;;5094724;28;20413;-77
2022/07/21 14:12:26;;;;;;;;;;;;;;;;;;5093549;28;19970;-77
2022/07/21 14:14:53;;;;;;;;;;;;;;;;;;5093416;28;19928;-78
2022/07/21 14:17:20;;;;;;;;;;;;;;;;;;5095697;28;20279;-79
2022/07/21 14:19:47;;;;;;;;;;;;;;;;;;5100469;28;19932;-79
2022/07/21 14:22:14;;;;;;;;;;;;;;;;;;5095215;28;19931;-78
2022/07/21 14:27:40;;;;;;;;;;;;;;;;;;5033803;28;19925;-81
2022/07/21 14:30:07;;;;;;;;;;;;;;;;;;5034172;28;19948;-78
2022/07/21 14:32:33;;;;;;;;;;;;;;;;;;5063832;28;19977;-79
2022/07/21 14:34:59;;;;;;;;;;;;;;;;;;5095799;28;19959;-79
2022/07/21 14:37:26;;;;;;;;;;;;;;;;;;5094673;28;19966;-76
2022/07/21 14:39:52;;;;;;;;;;;;;;;;;;5093112;28;19970;-79
2022/07/21 14:42:19;;;;;;;;;;;;;;;;;;5095433;28;20023;-78
2022/07/21 14:44:47;;;;;;;;;;;;;;;;;;5094592;28;19924;-78
2022/07/21 14:47:15;;;;;;;;;;;;;;;;;;5093255;28;20019;-79
2022/07/21 14:49:42;;;;;;;;;;;;;;;;;;5094232;28;20313;-78
2022/07/21 14:52:09;;;;;;;;;;;;;;;;;;5112599;28;19969;-79
2022/07/21 14:54:36;;;;;;;;;;;;;;;;;;5114589;28;19924;-80
2022/07/21 14:57:03;;;;;;;;;;;;;;;;;;5117343;28;19973;-80
2022/07/21 14:59:30;;;;;;;;;;;;;;;;;;5116450;28;20018;-80
2022/07/21 15:01:58;;;;;;;;;;;;;;;;;;5097483;28;20460;-79
2022/07/21 15:04:25;;;;;;;;;;;;;;;;;;5097341;28;19971;-79
2022/07/21 15:06:51;;;;;;;;;;;;;;;;;;5096582;28;19928;-79
2022/07/21 15:09:18;;;;;;;;;;;;;;;;;;5097810;28;19936;-80
2022/07/21 15:11:44;;;;;;;;;;;;;;;;;;5095307;28;20398;-80
2022/07/21 15:14:11;;;;;;;;;;;;;;;;;;5093692;28;19994;-78
2022/07/21 15:16:37;;;;;;;;;;;;;;;;;;5092455;28;19962;-78
2022/07/21 15:19:05;;;;;;;;;;;;;;;;;;5092969;28;20003;-80
2022/07/21 15:21:32;;;;;;;;;;;;;;;;;;5093060;28;19928;-79
2022/07/21 15:23:58;;;;;;;;;;;;;;;;;;5097083;28;19928;-80
2022/07/21 15:26:25;;;;;;;;;;;;;;;;;;5095045;28;19924;-80
2022/07/21 15:28:51;;;;;;;;;;;;;;;;;;5096531;28;19969;-78
2022/07/21 15:31:17;;;;;;;;;;;;;;;;;;5095003;28;19979;-78
2022/07/21 15:33:44;;;;;;;;;;;;;;;;;;5095565;28;19971;-79
2022/07/21 15:36:12;;;;;;;;;;;;;;;;;;5091946;28;19959;-77
2022/07/21 15:38:38;;;;;;;;;;;;;;;;;;5092319;28;20398;-78
2022/07/21 15:41:05;;;;;;;;;;;;;;;;;;5094833;28;19969;-79
2022/07/21 15:43:31;;;;;;;;;;;;;;;;;;5108145;28;20023;-78
2022/07/21 15:45:58;;;;;;;;;;;;;;;;;;5113163;28;19927;-79
2022/07/21 15:48:24;;;;;;;;;;;;;;;;;;5115938;28;20014;-78
2022/07/21 15:50:51;;;;;;;;;;;;;;;;;;5108500;28;20357;-77
2022/07/21 15:53:18;;;;;;;;;;;;;;;;;;5093289;28;19970;-79
2022/07/21 15:55:45;;;;;;;;;;;;;;;;;;5105619;28;20317;-77
2022/07/21 15:58:11;;;;;;;;;;;;;;;;;;5113871;28;20325;-79
2022/07/21 16:00:38;;;;;;;;;;;;;;;;;;5116125;28;19960;-78
2022/07/21 16:03:04;;;;;;;;;;;;;;;;;;5113699;28;20416;-77
2022/07/21 16:05:33;;;;;;;;;;;;;;;;;;5113517;28;20464;-77
2022/07/21 16:07:59;;;;;;;;;;;;;;;;;;5111967;28;19924;-78
2022/07/21 16:10:28;;;;;;;;;;;;;;;;;;5112467;28;20006;-80
2022/07/21 16:12:54;;;;;;;;;;;;;;;;;;5097194;28;19931;-79
2022/07/21 16:15:21;;;;;;;;;;;;;;;;;;5092750;28;20378;-76
2022/07/21 16:17:48;;;;;;;;;;;;;;;;;;5090374;28;19930;-76
2022/07/21 16:20:16;;;;;;;;;;;;;;;;;;5090328;28;20407;-79
2022/07/21 16:22:44;;;;;;;;;;;;;;;;;;5094621;28;19928;-79
2022/07/21 16:25:11;;;;;;;;;;;;;;;;;;5097815;28;19985;-79
2022/07/21 16:27:39;;;;;;;;;;;;;;;;;;5095159;28;19936;-80
2022/07/21 16:30:06;;;;;;;;;;;;;;;;;;5097645;28;19928;-79
2022/07/21 16:32:33;;;;;;;;;;;;;;;;;;5095761;28;19928;-80
2022/07/21 16:34:59;;;;;;;;;;;;;;;;;;5096430;28;20306;-78
2022/07/21 16:37:25;;;;;;;;;;;;;;;;;;5097337;28;20014;-80
2022/07/21 16:39:52;;;;;;;;;;;;;;;;;;5097702;28;20520;-79
2022/07/21 16:42:18;;;;;;;;;;;;;;;;;;5098010;28;19924;-82
2022/07/21 16:44:46;;;;;;;;;;;;;;;;;;5097709;28;19963;-78
2022/07/21 16:47:13;;;;;;;;;;;;;;;;;;5092436;28;19985;-79
2022/07/21 16:49:39;;;;;;;;;;;;;;;;;;5093825;28;20000;-81
2022/07/21 16:52:06;;;;;;;;;;;;;;;;;;5092145;28;19924;-79
2022/07/21 16:54:32;;;;;;;;;;;;;;;;;;5091816;28;19990;-78